sensor_id;sensor_type;location;lat;lon;timestamp;pressure;altitude;pressure_sealevel;temperature;humidity
12868;BME280;33517;49.866;8.320;2023-10-13T00:02:41;100424.94;;;17.49;97.23
12868;BME280;33517;49.866;8.320;2023-10-13T00:05:33;100429.44;;;17.48;97.66
12868;BME280;33517;49.866;8.320;2023-10-13T00:08:25;100436.38;;;17.49;97.50
12868;BME280;33517;49.866;8.320;2023-10-13T00:11:19;100430.25;;;17.49;99.28
12868;BME280;33517;49.866;8.320;2023-10-13T00:14:12;100429.22;;;17.50;99.46
12868;BME280;33517;49.866;8.320;2023-10-13T00:17:08;100428.78;;;17.53;99.23
12868;BME280;33517;49.866;8.320;2023-10-13T00:20:07;100421.41;;;17.55;98.62
12868;BME280;33517;49.866;8.320;2023-10-13T00:23:07;100417.53;;;17.58;98.66
12868;BME280;33517;49.866;8.320;2023-10-13T00:25:59;100416.50;;;17.59;98.36
12868;BME280;33517;49.866;8.320;2023-10-13T00:28:53;100412.00;;;17.59;97.92
12868;BME280;33517;49.866;8.320;2023-10-13T00:31:59;100414.66;;;17.59;97.58
12868;BME280;33517;49.866;8.320;2023-10-13T00:34:53;100409.53;;;17.58;97.79
12868;BME280;33517;49.866;8.320;2023-10-13T00:37:47;100403.41;;;17.57;97.98
12868;BME280;33517;49.866;8.320;2023-10-13T00:40:39;100410.97;;;17.60;98.43
12868;BME280;33517;49.866;8.320;2023-10-13T00:43:45;100410.75;;;17.62;99.44
12868;BME280;33517;49.866;8.320;2023-10-13T00:46:54;100405.81;;;17.65;99.08
12868;BME280;33517;49.866;8.320;2023-10-13T00:49:46;100401.72;;;17.69;98.68
12868;BME280;33517;49.866;8.320;2023-10-13T00:52:40;100399.44;;;17.73;98.87
12868;BME280;33517;49.866;8.320;2023-10-13T00:55:32;100407.03;;;17.76;99.40
12868;BME280;33517;49.866;8.320;2023-10-13T00:58:25;100402.47;;;17.83;98.96
12868;BME280;33517;49.866;8.320;2023-10-13T01:01:18;100391.00;;;17.82;98.35
12868;BME280;33517;49.866;8.320;2023-10-13T01:04:10;100398.59;;;17.85;98.78
12868;BME280;33517;49.866;8.320;2023-10-13T01:07:03;100394.28;;;17.84;98.02
12868;BME280;33517;49.866;8.320;2023-10-13T01:09:56;100397.75;;;17.85;98.00
12868;BME280;33517;49.866;8.320;2023-10-13T01:12:48;100384.00;;;17.88;97.64
12868;BME280;33517;49.866;8.320;2023-10-13T01:15:42;100385.66;;;17.89;98.08
12868;BME280;33517;49.866;8.320;2023-10-13T01:18:37;100371.53;;;17.88;97.65
12868;BME280;33517;49.866;8.320;2023-10-13T01:21:37;100379.72;;;17.87;97.06
12868;BME280;33517;49.866;8.320;2023-10-13T01:24:32;100382.19;;;17.88;97.03
12868;BME280;33517;49.866;8.320;2023-10-13T01:27:26;100380.34;;;17.89;96.67
12868;BME280;33517;49.866;8.320;2023-10-13T01:30:17;100381.75;;;17.91;96.93
12868;BME280;33517;49.866;8.320;2023-10-13T01:33:13;100371.91;;;17.92;96.25
12868;BME280;33517;49.866;8.320;2023-10-13T01:36:05;100373.78;;;17.91;96.42
12868;BME280;33517;49.866;8.320;2023-10-13T01:39:00;100363.28;;;17.96;96.44
12868;BME280;33517;49.866;8.320;2023-10-13T01:41:54;100370.22;;;18.04;96.43
12868;BME280;33517;49.866;8.320;2023-10-13T01:44:47;100368.53;;;18.09;96.54
12868;BME280;33517;49.866;8.320;2023-10-13T01:47:38;100360.69;;;18.14;96.54
12868;BME280;33517;49.866;8.320;2023-10-13T01:50:30;100361.91;;;18.18;96.30
12868;BME280;33517;49.866;8.320;2023-10-13T01:53:22;100362.50;;;18.20;96.33
12868;BME280;33517;49.866;8.320;2023-10-13T01:56:13;100354.09;;;18.23;96.14
12868;BME280;33517;49.866;8.320;2023-10-13T01:59:06;100350.78;;;18.28;96.23
12868;BME280;33517;49.866;8.320;2023-10-13T02:01:59;100351.19;;;18.31;96.07
12868;BME280;33517;49.866;8.320;2023-10-13T02:04:52;100345.03;;;18.31;95.37
12868;BME280;33517;49.866;8.320;2023-10-13T02:07:47;100342.03;;;18.21;95.50
12868;BME280;33517;49.866;8.320;2023-10-13T02:10:39;100330.25;;;18.04;95.96
12868;BME280;33517;49.866;8.320;2023-10-13T02:13:34;100326.25;;;17.88;95.71
12868;BME280;33517;49.866;8.320;2023-10-13T02:16:33;100318.59;;;17.74;96.30
12868;BME280;33517;49.866;8.320;2023-10-13T02:19:24;100328.88;;;17.64;96.47
12868;BME280;33517;49.866;8.320;2023-10-13T02:22:18;100326.81;;;17.59;95.81
12868;BME280;33517;49.866;8.320;2023-10-13T02:25:17;100319.91;;;17.52;95.89
12868;BME280;33517;49.866;8.320;2023-10-13T02:28:25;100313.19;;;17.42;96.10
12868;BME280;33517;49.866;8.320;2023-10-13T02:31:19;100316.47;;;17.38;96.70
12868;BME280;33517;49.866;8.320;2023-10-13T02:34:16;100298.06;;;17.36;96.94
12868;BME280;33517;49.866;8.320;2023-10-13T02:37:09;100292.50;;;17.38;97.53
12868;BME280;33517;49.866;8.320;2023-10-13T02:40:00;100296.38;;;17.42;98.85
12868;BME280;33517;49.866;8.320;2023-10-13T02:42:53;100295.19;;;17.38;98.53
12868;BME280;33517;49.866;8.320;2023-10-13T02:45:51;100291.53;;;17.32;97.68
12868;BME280;33517;49.866;8.320;2023-10-13T02:48:48;100276.41;;;17.26;97.91
12868;BME280;33517;49.866;8.320;2023-10-13T02:51:45;100272.56;;;17.22;97.85
12868;BME280;33517;49.866;8.320;2023-10-13T02:54:37;100273.19;;;17.18;98.05
12868;BME280;33517;49.866;8.320;2023-10-13T02:57:37;100275.25;;;17.09;97.40
12868;BME280;33517;49.866;8.320;2023-10-13T03:00:30;100280.19;;;17.06;97.67
12868;BME280;33517;49.866;8.320;2023-10-13T03:03:22;100280.38;;;17.04;98.03
12868;BME280;33517;49.866;8.320;2023-10-13T03:06:14;100277.91;;;17.09;98.87
12868;BME280;33517;49.866;8.320;2023-10-13T03:09:08;100286.50;;;17.11;98.38
12868;BME280;33517;49.866;8.320;2023-10-13T03:12:08;100281.97;;;17.18;97.93
12868;BME280;33517;49.866;8.320;2023-10-13T03:14:59;100284.22;;;17.21;98.29
12868;BME280;33517;49.866;8.320;2023-10-13T03:18:06;100275.22;;;17.22;98.26
12868;BME280;33517;49.866;8.320;2023-10-13T03:20:58;100276.00;;;17.23;97.59
12868;BME280;33517;49.866;8.320;2023-10-13T03:23:53;100275.41;;;17.21;97.87
12868;BME280;33517;49.866;8.320;2023-10-13T03:26:46;100275.03;;;17.17;97.57
12868;BME280;33517;49.866;8.320;2023-10-13T03:29:44;100271.78;;;17.09;97.48
12868;BME280;33517;49.866;8.320;2023-10-13T03:32:38;100268.75;;;16.99;97.95
12868;BME280;33517;49.866;8.320;2023-10-13T03:35:35;100263.06;;;16.95;97.64
12868;BME280;33517;49.866;8.320;2023-10-13T03:38:32;100255.25;;;16.94;97.90
12868;BME280;33517;49.866;8.320;2023-10-13T03:41:27;100250.38;;;16.91;97.67
12868;BME280;33517;49.866;8.320;2023-10-13T03:44:22;100244.66;;;16.87;97.85
12868;BME280;33517;49.866;8.320;2023-10-13T03:47:14;100252.25;;;16.84;97.60
12868;BME280;33517;49.866;8.320;2023-10-13T03:50:18;100241.63;;;16.84;98.20
12868;BME280;33517;49.866;8.320;2023-10-13T03:53:20;100247.31;;;16.87;98.27
12868;BME280;33517;49.866;8.320;2023-10-13T03:56:15;100242.41;;;16.91;98.33
12868;BME280;33517;49.866;8.320;2023-10-13T03:59:16;100239.91;;;16.96;97.93
12868;BME280;33517;49.866;8.320;2023-10-13T04:02:12;100249.31;;;17.05;98.07
12868;BME280;33517;49.866;8.320;2023-10-13T04:05:09;100242.72;;;17.14;98.49
12868;BME280;33517;49.866;8.320;2023-10-13T04:08:19;100255.19;;;17.20;98.43
12868;BME280;33517;49.866;8.320;2023-10-13T04:11:29;100249.00;;;17.26;97.89
12868;BME280;33517;49.866;8.320;2023-10-13T04:15:01;100240.59;;;17.29;97.56
12868;BME280;33517;49.866;8.320;2023-10-13T04:18:15;100237.13;;;17.28;97.79
12868;BME280;33517;49.866;8.320;2023-10-13T04:21:24;100242.03;;;17.31;97.85
12868;BME280;33517;49.866;8.320;2023-10-13T04:24:30;100233.59;;;17.41;98.03
12868;BME280;33517;49.866;8.320;2023-10-13T04:27:50;100227.22;;;17.48;98.40
12868;BME280;33517;49.866;8.320;2023-10-13T04:31:05;100226.78;;;17.52;98.42
12868;BME280;33517;49.866;8.320;2023-10-13T04:34:16;100232.06;;;17.58;97.73
12868;BME280;33517;49.866;8.320;2023-10-13T04:37:18;100230.19;;;17.65;97.75
12868;BME280;33517;49.866;8.320;2023-10-13T04:40:19;100230.94;;;17.72;97.51
12868;BME280;33517;49.866;8.320;2023-10-13T04:43:15;100208.41;;;17.75;97.80
12868;BME280;33517;49.866;8.320;2023-10-13T04:46:23;100209.66;;;17.72;97.34
12868;BME280;33517;49.866;8.320;2023-10-13T04:49:45;100199.59;;;17.74;97.39
12868;BME280;33517;49.866;8.320;2023-10-13T04:52:43;100186.28;;;17.74;97.24
12868;BME280;33517;49.866;8.320;2023-10-13T04:55:52;100188.53;;;17.77;96.97
12868;BME280;33517;49.866;8.320;2023-10-13T04:58:58;100191.72;;;17.86;97.03
12868;BME280;33517;49.866;8.320;2023-10-13T05:02:07;100183.69;;;17.92;95.71
12868;BME280;33517;49.866;8.320;2023-10-13T05:05:18;100186.50;;;17.97;95.51
12868;BME280;33517;49.866;8.320;2023-10-13T05:08:36;100171.34;;;17.98;95.50
12868;BME280;33517;49.866;8.320;2023-10-13T05:11:46;100169.34;;;17.93;95.87
12868;BME280;33517;49.866;8.320;2023-10-13T05:14:55;100178.81;;;17.89;95.99
12868;BME280;33517;49.866;8.320;2023-10-13T05:18:01;100164.09;;;17.87;96.36
12868;BME280;33517;49.866;8.320;2023-10-13T05:21:12;100170.00;;;17.89;95.94
12868;BME280;33517;49.866;8.320;2023-10-13T05:24:21;100156.31;;;17.85;95.14
12868;BME280;33517;49.866;8.320;2023-10-13T05:27:31;100166.78;;;17.80;95.02
12868;BME280;33517;49.866;8.320;2023-10-13T05:30:40;100166.03;;;17.73;95.17
12868;BME280;33517;49.866;8.320;2023-10-13T05:33:50;100163.59;;;17.72;96.09
12868;BME280;33517;49.866;8.320;2023-10-13T05:37:00;100170.31;;;17.74;95.94
12868;BME280;33517;49.866;8.320;2023-10-13T05:40:10;100177.06;;;17.77;96.04
12868;BME280;33517;49.866;8.320;2023-10-13T05:43:20;100179.09;;;17.81;95.99
12868;BME280;33517;49.866;8.320;2023-10-13T05:46:30;100180.88;;;17.87;95.85
12868;BME280;33517;49.866;8.320;2023-10-13T05:49:51;100182.66;;;17.93;95.26
12868;BME280;33517;49.866;8.320;2023-10-13T05:52:57;100177.94;;;17.95;95.26
12868;BME280;33517;49.866;8.320;2023-10-13T05:56:06;100189.25;;;17.91;95.25
12868;BME280;33517;49.866;8.320;2023-10-13T05:59:16;100179.00;;;17.88;94.94
12868;BME280;33517;49.866;8.320;2023-10-13T06:02:25;100180.66;;;17.89;94.89
12868;BME280;33517;49.866;8.320;2023-10-13T06:05:35;100178.81;;;17.89;94.65
12868;BME280;33517;49.866;8.320;2023-10-13T06:08:48;100177.19;;;17.88;94.95
12868;BME280;33517;49.866;8.320;2023-10-13T06:11:58;100179.41;;;17.91;94.13
12868;BME280;33517;49.866;8.320;2023-10-13T06:15:08;100176.75;;;17.91;94.48
12868;BME280;33517;49.866;8.320;2023-10-13T06:18:32;100176.31;;;17.94;94.41
12868;BME280;33517;49.866;8.320;2023-10-13T06:21:42;100175.34;;;18.07;94.22
12868;BME280;33517;49.866;8.320;2023-10-13T06:24:49;100173.56;;;18.25;93.74
12868;BME280;33517;49.866;8.320;2023-10-13T06:27:58;100180.34;;;18.46;93.76
12868;BME280;33517;49.866;8.320;2023-10-13T06:31:16;100178.19;;;19.50;91.05
12868;BME280;33517;49.866;8.320;2023-10-13T06:34:12;100174.38;;;19.81;88.94
12868;BME280;33517;49.866;8.320;2023-10-13T06:37:06;100183.63;;;20.82;85.87
12868;BME280;33517;49.866;8.320;2023-10-13T06:40:14;100187.50;;;21.43;84.03
12868;BME280;33517;49.866;8.320;2023-10-13T06:43:16;100191.63;;;20.54;86.19
12868;BME280;33517;49.866;8.320;2023-10-13T06:46:12;100183.59;;;19.96;87.49
12868;BME280;33517;49.866;8.320;2023-10-13T06:49:14;100189.94;;;19.72;88.67
12868;BME280;33517;49.866;8.320;2023-10-13T06:52:09;100192.84;;;19.59;89.07
12868;BME280;33517;49.866;8.320;2023-10-13T06:55:01;100201.06;;;19.58;89.13
12868;BME280;33517;49.866;8.320;2023-10-13T06:57:57;100194.63;;;19.77;88.33
12868;BME280;33517;49.866;8.320;2023-10-13T07:00:50;100192.81;;;20.24;87.65
12868;BME280;33517;49.866;8.320;2023-10-13T07:03:45;100189.59;;;20.73;85.97
12868;BME280;33517;49.866;8.320;2023-10-13T07:06:43;100193.09;;;20.62;82.84
12868;BME280;33517;49.866;8.320;2023-10-13T07:09:38;100192.44;;;20.55;81.07
12868;BME280;33517;49.866;8.320;2023-10-13T07:12:40;100192.06;;;20.63;81.17
12868;BME280;33517;49.866;8.320;2023-10-13T07:15:35;100198.56;;;21.46;78.21
12868;BME280;33517;49.866;8.320;2023-10-13T07:18:35;100196.84;;;22.78;74.38
12868;BME280;33517;49.866;8.320;2023-10-13T07:21:33;100201.63;;;24.36;70.03
12868;BME280;33517;49.866;8.320;2023-10-13T07:24:25;100200.50;;;26.11;65.48
12868;BME280;33517;49.866;8.320;2023-10-13T07:27:22;100206.97;;;25.70;65.19
12868;BME280;33517;49.866;8.320;2023-10-13T07:30:17;100200.25;;;24.33;66.29
12868;BME280;33517;49.866;8.320;2023-10-13T07:33:12;100196.69;;;25.51;63.10
12868;BME280;33517;49.866;8.320;2023-10-13T07:36:05;100197.19;;;26.49;57.87
12868;BME280;33517;49.866;8.320;2023-10-13T07:39:06;100200.88;;;28.38;54.89
12868;BME280;33517;49.866;8.320;2023-10-13T07:42:11;100206.97;;;27.91;52.50
12868;BME280;33517;49.866;8.320;2023-10-13T07:45:10;100205.16;;;29.10;51.06
12868;BME280;33517;49.866;8.320;2023-10-13T07:48:05;100204.25;;;29.75;51.66
12868;BME280;33517;49.866;8.320;2023-10-13T07:51:05;100194.91;;;29.81;50.46
12868;BME280;33517;49.866;8.320;2023-10-13T07:54:01;100195.88;;;27.59;50.83
12868;BME280;33517;49.866;8.320;2023-10-13T07:57:02;100195.78;;;26.67;53.99
12868;BME280;33517;49.866;8.320;2023-10-13T07:59:58;100190.47;;;26.47;56.06
12868;BME280;33517;49.866;8.320;2023-10-13T08:03:01;100182.03;;;25.07;56.95
12868;BME280;33517;49.866;8.320;2023-10-13T08:06:09;100181.06;;;25.43;57.94
12868;BME280;33517;49.866;8.320;2023-10-13T08:09:11;100174.72;;;26.74;54.84
12868;BME280;33517;49.866;8.320;2023-10-13T08:12:17;100176.47;;;26.04;55.06
12868;BME280;33517;49.866;8.320;2023-10-13T08:15:12;100173.97;;;24.55;58.24
12868;BME280;33517;49.866;8.320;2023-10-13T08:18:11;100176.22;;;23.85;61.50
12868;BME280;33517;49.866;8.320;2023-10-13T08:21:09;100170.47;;;24.03;61.47
12868;BME280;33517;49.866;8.320;2023-10-13T08:24:07;100168.97;;;23.86;60.64
12868;BME280;33517;49.866;8.320;2023-10-13T08:26:59;100179.41;;;23.50;62.00
12868;BME280;33517;49.866;8.320;2023-10-13T08:30:24;100178.56;;;23.45;62.97
12868;BME280;33517;49.866;8.320;2023-10-13T08:33:20;100166.91;;;23.66;62.61
12868;BME280;33517;49.866;8.320;2023-10-13T08:36:18;100166.72;;;23.72;62.59
12868;BME280;33517;49.866;8.320;2023-10-13T08:39:18;100158.06;;;23.12;64.48
12868;BME280;33517;49.866;8.320;2023-10-13T08:42:35;100163.78;;;23.21;63.59
12868;BME280;33517;49.866;8.320;2023-10-13T08:45:43;100153.44;;;22.59;65.29
12868;BME280;33517;49.866;8.320;2023-10-13T08:48:53;100149.56;;;22.34;66.09
12868;BME280;33517;49.866;8.320;2023-10-13T08:51:56;100138.41;;;22.42;65.09
12868;BME280;33517;49.866;8.320;2023-10-13T08:54:57;100135.25;;;22.45;64.57
12868;BME280;33517;49.866;8.320;2023-10-13T08:58:24;100117.06;;;23.85;62.00
12868;BME280;33517;49.866;8.320;2023-10-13T09:01:36;100121.66;;;28.51;52.73
12868;BME280;33517;49.866;8.320;2023-10-13T09:04:36;100141.84;;;32.61;40.73
12868;BME280;33517;49.866;8.320;2023-10-13T09:07:30;100128.38;;;32.65;40.47
12868;BME280;33517;49.866;8.320;2023-10-13T09:10:26;100119.13;;;32.35;38.26
12868;BME280;33517;49.866;8.320;2023-10-13T09:13:34;100111.16;;;31.33;40.08
12868;BME280;33517;49.866;8.320;2023-10-13T09:16:34;100116.25;;;31.92;41.76
12868;BME280;33517;49.866;8.320;2023-10-13T09:19:59;100106.59;;;32.25;37.50
12868;BME280;33517;49.866;8.320;2023-10-13T09:23:13;100093.47;;;31.00;40.41
12868;BME280;33517;49.866;8.320;2023-10-13T09:26:14;100089.47;;;30.83;40.68
12868;BME280;33517;49.866;8.320;2023-10-13T09:29:17;100095.47;;;31.08;39.05
12868;BME280;33517;49.866;8.320;2023-10-13T09:32:09;100089.44;;;30.48;40.41
12868;BME280;33517;49.866;8.320;2023-10-13T09:35:03;100082.56;;;29.82;41.85
12868;BME280;33517;49.866;8.320;2023-10-13T09:37:58;100081.03;;;28.51;44.15
12868;BME280;33517;49.866;8.320;2023-10-13T09:40:51;100073.91;;;27.32;47.34
12868;BME280;33517;49.866;8.320;2023-10-13T09:43:47;100074.78;;;26.79;48.91
12868;BME280;33517;49.866;8.320;2023-10-13T09:46:42;100076.28;;;27.00;49.28
12868;BME280;33517;49.866;8.320;2023-10-13T09:49:39;100067.69;;;26.88;50.19
12868;BME280;33517;49.866;8.320;2023-10-13T09:52:40;100074.28;;;29.28;46.60
12868;BME280;33517;49.866;8.320;2023-10-13T09:55:37;100070.59;;;31.67;41.22
12868;BME280;33517;49.866;8.320;2023-10-13T09:58:32;100080.41;;;32.63;37.12
12868;BME280;33517;49.866;8.320;2023-10-13T10:01:28;100075.63;;;32.78;38.05
12868;BME280;33517;49.866;8.320;2023-10-13T10:04:24;100072.28;;;32.89;36.00
12868;BME280;33517;49.866;8.320;2023-10-13T10:07:23;100078.34;;;30.17;41.12
12868;BME280;33517;49.866;8.320;2023-10-13T10:10:21;100076.31;;;32.27;37.76
12868;BME280;33517;49.866;8.320;2023-10-13T10:13:15;100077.03;;;30.55;40.65
12868;BME280;33517;49.866;8.320;2023-10-13T10:16:20;100068.34;;;28.70;44.10
12868;BME280;33517;49.866;8.320;2023-10-13T10:19:18;100063.38;;;28.59;44.36
12868;BME280;33517;49.866;8.320;2023-10-13T10:22:10;100067.63;;;28.41;45.24
12868;BME280;33517;49.866;8.320;2023-10-13T10:25:07;100059.50;;;28.65;45.32
12868;BME280;33517;49.866;8.320;2023-10-13T10:28:14;100047.13;;;30.33;42.83
12868;BME280;33517;49.866;8.320;2023-10-13T10:31:07;100049.81;;;32.92;39.13
12868;BME280;33517;49.866;8.320;2023-10-13T10:34:12;100049.84;;;34.69;36.96
12868;BME280;33517;49.866;8.320;2023-10-13T10:37:05;100045.31;;;35.14;33.55
12868;BME280;33517;49.866;8.320;2023-10-13T10:40:00;100040.47;;;31.33;37.94
12868;BME280;33517;49.866;8.320;2023-10-13T10:42:54;100039.59;;;29.25;42.03
12868;BME280;33517;49.866;8.320;2023-10-13T10:45:47;100038.56;;;28.28;44.69
12868;BME280;33517;49.866;8.320;2023-10-13T10:48:41;100038.56;;;28.04;45.46
12868;BME280;33517;49.866;8.320;2023-10-13T10:51:40;100034.13;;;27.90;46.15
12868;BME280;33517;49.866;8.320;2023-10-13T10:54:36;100016.22;;;28.17;46.10
12868;BME280;33517;49.866;8.320;2023-10-13T10:57:34;100026.53;;;27.92;46.41
12868;BME280;33517;49.866;8.320;2023-10-13T11:00:28;100007.56;;;27.97;46.69
12868;BME280;33517;49.866;8.320;2023-10-13T11:03:32;100000.66;;;31.67;41.95
12868;BME280;33517;49.866;8.320;2023-10-13T11:06:28;100003.63;;;33.04;39.58
12868;BME280;33517;49.866;8.320;2023-10-13T11:09:30;99995.34;;;31.62;40.25
12868;BME280;33517;49.866;8.320;2023-10-13T11:12:28;100002.78;;;29.97;42.63
12868;BME280;33517;49.866;8.320;2023-10-13T11:15:24;99988.31;;;29.29;43.99
12868;BME280;33517;49.866;8.320;2023-10-13T11:18:29;99970.66;;;28.99;45.19
12868;BME280;33517;49.866;8.320;2023-10-13T11:21:29;99976.16;;;29.85;42.35
12868;BME280;33517;49.866;8.320;2023-10-13T11:24:21;99961.75;;;29.98;43.43
12868;BME280;33517;49.866;8.320;2023-10-13T11:27:17;99951.28;;;29.38;43.72
12868;BME280;33517;49.866;8.320;2023-10-13T11:30:30;99943.94;;;30.20;42.76
12868;BME280;33517;49.866;8.320;2023-10-13T11:33:31;99941.56;;;29.91;42.54
12868;BME280;33517;49.866;8.320;2023-10-13T11:36:24;99940.97;;;30.65;41.77
12868;BME280;33517;49.866;8.320;2023-10-13T11:39:22;99934.75;;;31.40;40.22
12868;BME280;33517;49.866;8.320;2023-10-13T11:42:24;99933.72;;;30.97;39.82
12868;BME280;33517;49.866;8.320;2023-10-13T11:45:18;99925.69;;;32.35;38.55
12868;BME280;33517;49.866;8.320;2023-10-13T11:48:22;99916.28;;;34.59;35.33
12868;BME280;33517;49.866;8.320;2023-10-13T11:51:25;99914.31;;;32.33;36.83
12868;BME280;33517;49.866;8.320;2023-10-13T11:54:23;99908.31;;;31.80;38.62
12868;BME280;33517;49.866;8.320;2023-10-13T11:57:15;99903.63;;;32.45;36.71
12868;BME280;33517;49.866;8.320;2023-10-13T12:00:14;99891.34;;;32.94;35.34
12868;BME280;33517;49.866;8.320;2023-10-13T12:03:18;99898.72;;;33.77;34.21
12868;BME280;33517;49.866;8.320;2023-10-13T12:06:42;99901.09;;;33.12;35.06
12868;BME280;33517;49.866;8.320;2023-10-13T12:09:53;99892.13;;;31.83;35.89
12868;BME280;33517;49.866;8.320;2023-10-13T12:13:05;99898.72;;;33.77;34.49
12868;BME280;33517;49.866;8.320;2023-10-13T12:16:00;99891.72;;;33.88;33.65
12868;BME280;33517;49.866;8.320;2023-10-13T12:18:59;99889.13;;;32.87;33.83
12868;BME280;33517;49.866;8.320;2023-10-13T12:21:52;99887.22;;;31.94;33.13
12868;BME280;33517;49.866;8.320;2023-10-13T12:24:45;99891.66;;;30.94;35.50
12868;BME280;33517;49.866;8.320;2023-10-13T12:27:44;99888.03;;;32.54;33.22
12868;BME280;33517;49.866;8.320;2023-10-13T12:30:39;99882.53;;;32.88;33.68
12868;BME280;33517;49.866;8.320;2023-10-13T12:33:41;99874.19;;;32.93;33.18
12868;BME280;33517;49.866;8.320;2023-10-13T12:36:33;99875.25;;;34.79;31.80
12868;BME280;33517;49.866;8.320;2023-10-13T12:39:32;99864.38;;;35.15;28.99
12868;BME280;33517;49.866;8.320;2023-10-13T12:42:47;99856.34;;;33.13;31.04
12868;BME280;33517;49.866;8.320;2023-10-13T12:45:56;99858.59;;;31.96;32.15
12868;BME280;33517;49.866;8.320;2023-10-13T12:49:07;99852.50;;;30.73;33.91
12868;BME280;33517;49.866;8.320;2023-10-13T12:52:26;99847.28;;;29.96;34.85
12868;BME280;33517;49.866;8.320;2023-10-13T12:55:22;99845.94;;;30.74;34.34
12868;BME280;33517;49.866;8.320;2023-10-13T12:58:15;99827.38;;;30.98;33.60
12868;BME280;33517;49.866;8.320;2023-10-13T13:01:07;99821.72;;;31.99;32.69
12868;BME280;33517;49.866;8.320;2023-10-13T13:03:59;99840.47;;;32.51;31.29
12868;BME280;33517;49.866;8.320;2023-10-13T13:06:55;99823.31;;;32.08;30.95
12868;BME280;33517;49.866;8.320;2023-10-13T13:09:47;99821.56;;;30.82;32.55
12868;BME280;33517;49.866;8.320;2023-10-13T13:12:41;99818.44;;;30.45;32.79
12868;BME280;33517;49.866;8.320;2023-10-13T13:15:33;99819.16;;;32.19;31.94
12868;BME280;33517;49.866;8.320;2023-10-13T13:18:25;99819.94;;;33.38;30.30
12868;BME280;33517;49.866;8.320;2023-10-13T13:21:17;99814.59;;;33.71;29.95
12868;BME280;33517;49.866;8.320;2023-10-13T13:24:15;99819.41;;;34.35;29.42
12868;BME280;33517;49.866;8.320;2023-10-13T13:27:06;99808.16;;;33.75;28.53
12868;BME280;33517;49.866;8.320;2023-10-13T13:29:58;99801.28;;;32.73;30.67
12868;BME280;33517;49.866;8.320;2023-10-13T13:32:51;99803.09;;;33.65;29.68
12868;BME280;33517;49.866;8.320;2023-10-13T13:35:43;99805.69;;;34.23;29.10
12868;BME280;33517;49.866;8.320;2023-10-13T13:38:39;99791.91;;;34.53;28.82
12868;BME280;33517;49.866;8.320;2023-10-13T13:41:33;99787.47;;;34.48;28.28
12868;BME280;33517;49.866;8.320;2023-10-13T13:44:25;99784.94;;;34.10;28.99
12868;BME280;33517;49.866;8.320;2023-10-13T13:47:25;99771.13;;;32.15;31.11
12868;BME280;33517;49.866;8.320;2023-10-13T13:50:20;99771.28;;;31.02;32.59
12868;BME280;33517;49.866;8.320;2023-10-13T13:53:15;99767.69;;;30.54;33.53
12868;BME280;33517;49.866;8.320;2023-10-13T13:56:18;99768.06;;;31.91;33.07
12868;BME280;33517;49.866;8.320;2023-10-13T13:59:11;99762.53;;;31.22;33.48
12868;BME280;33517;49.866;8.320;2023-10-13T14:02:06;99752.78;;;29.98;33.53
12868;BME280;33517;49.866;8.320;2023-10-13T14:05:10;99760.81;;;28.91;34.55
12868;BME280;33517;49.866;8.320;2023-10-13T14:08:06;99744.16;;;28.39;35.53
12868;BME280;33517;49.866;8.320;2023-10-13T14:11:02;99748.69;;;28.43;35.64
12868;BME280;33517;49.866;8.320;2023-10-13T14:14:15;99740.13;;;28.23;36.22
12868;BME280;33517;49.866;8.320;2023-10-13T14:17:19;99741.13;;;27.94;36.88
12868;BME280;33517;49.866;8.320;2023-10-13T14:20:11;99735.34;;;27.64;36.99
12868;BME280;33517;49.866;8.320;2023-10-13T14:23:09;99725.47;;;27.54;37.23
12868;BME280;33517;49.866;8.320;2023-10-13T14:26:02;99728.09;;;27.78;37.07
12868;BME280;33517;49.866;8.320;2023-10-13T14:28:59;99724.47;;;28.19;36.07
12868;BME280;33517;49.866;8.320;2023-10-13T14:31:53;99725.91;;;28.31;35.20
12868;BME280;33517;49.866;8.320;2023-10-13T14:34:46;99724.09;;;28.26;35.13
12868;BME280;33517;49.866;8.320;2023-10-13T14:37:39;99727.00;;;27.97;35.42
12868;BME280;33517;49.866;8.320;2023-10-13T14:40:31;99717.19;;;27.83;36.05
12868;BME280;33517;49.866;8.320;2023-10-13T14:43:23;99713.06;;;27.72;35.95
12868;BME280;33517;49.866;8.320;2023-10-13T14:46:18;99706.41;;;27.64;36.26
12868;BME280;33517;49.866;8.320;2023-10-13T14:49:14;99706.19;;;27.61;36.68
12868;BME280;33517;49.866;8.320;2023-10-13T14:52:09;99705.78;;;27.54;36.67
12868;BME280;33517;49.866;8.320;2023-10-13T14:55:01;99701.75;;;27.51;36.96
12868;BME280;33517;49.866;8.320;2023-10-13T14:57:57;99697.00;;;27.43;36.90
12868;BME280;33517;49.866;8.320;2023-10-13T15:00:49;99692.53;;;27.33;37.72
12868;BME280;33517;49.866;8.320;2023-10-13T15:03:43;99692.94;;;27.22;38.04
12868;BME280;33517;49.866;8.320;2023-10-13T15:06:36;99683.06;;;27.12;37.89
12868;BME280;33517;49.866;8.320;2023-10-13T15:09:28;99680.53;;;27.02;38.06
12868;BME280;33517;49.866;8.320;2023-10-13T15:12:20;99678.00;;;26.87;38.32
12868;BME280;33517;49.866;8.320;2023-10-13T15:15:12;99670.09;;;26.72;38.67
12868;BME280;33517;49.866;8.320;2023-10-13T15:18:09;99674.50;;;26.63;39.03
12868;BME280;33517;49.866;8.320;2023-10-13T15:21:02;99666.22;;;26.55;39.47
12868;BME280;33517;49.866;8.320;2023-10-13T15:23:56;99658.25;;;26.44;40.01
12868;BME280;33517;49.866;8.320;2023-10-13T15:26:50;99646.47;;;26.35;40.20
12868;BME280;33517;49.866;8.320;2023-10-13T15:29:47;99639.06;;;26.22;40.08
12868;BME280;33517;49.866;8.320;2023-10-13T15:32:41;99633.53;;;26.09;40.69
12868;BME280;33517;49.866;8.320;2023-10-13T15:35:33;99629.31;;;25.98;41.24
12868;BME280;33517;49.866;8.320;2023-10-13T15:38:25;99628.31;;;25.89;41.21
12868;BME280;33517;49.866;8.320;2023-10-13T15:41:23;99617.34;;;25.80;42.17